Salt Lake City, Utah
Current Conditions -  °F | °C
As of 4:53 PM on Tuesday 25 Nov 2014 (Local Time) from KSLC Reporting Station
Overcast Overcast  
Wind Chill: 37°   Ceiling: 5500
Heat Index: 44°   Visibility: 10mi
Dew Point: 28°   Wind: 15mph
Humidity: 53%   Direction: 150°SSE
Pressure: 30.29"   Gusts: NA
Location:  40.76°N, 111.88°W
Report Text: KSLC 252353Z 15013KT 10SM FEW045 BKN055 OVC085 07/M02 A3029 RMK AO2 SLP260 SH DSNT E-SE AND NW T00671022 10067 20050 58008
Loading
Personal Weather Stations






























Interactive Weather Map New forecast layout! Learn more

10-Day Weather Forecast

Advertisements
Track Severe Weather on mobile